Terminal Aerodrome Forecast
Issued by NWS Twin Cities, MN

Home | Current Version | Previous Version | Graphics & Text | Print | Product List | Glossary On
Versions: 1 2 3 4 5 6 7 8 9 10 11 12 13 14 15 16 17
000
FTUS43 KMPX 251736
TAFSTC
TAF
KSTC 251736Z 2518/2618 24006KT P6SM OVC025
     FM252200 28009KT P6SM SCT015 OVC030
     FM260300 31004KT 4SM BR OVC015
     FM260600 33004KT 1SM BR OVC003
     FM261300 35005KT 3SM BR OVC007
     FM261600 36005KT P6SM BKN012=

USA.gov is the U.S. government's official web portal to all federal, state and local government web resources and services.